Time;durP1;ratioP1;P1;durP2;ratioP2;P2;SDS_P1;SDS_P2;PMS_P1;PMS_P2;Temp;Humidity;BMP_temperature;BMP_pressure;BME280_temperature;BME280_humidity;BME280_pressure;Samples;Min_cycle;Max_cycle;Signal;HPM_P1;HPM_P2
2023/05/19 00:00:54;;;;;;;3.83;2.10;;;9.10;99.90;;;;;;5042272;28;20792;-68
2023/05/19 00:03:20;;;;;;;4.17;2.50;;;9.00;99.90;;;;;;5050993;28;20426;-68
2023/05/19 00:05:47;;;;;;;5.20;3.00;;;9.00;99.90;;;;;;5046372;28;20421;-68
2023/05/19 00:08:16;;;;;;;3.83;2.07;;;8.90;99.90;;;;;;5038535;28;20241;-68
2023/05/19 00:10:42;;;;;;;4.10;2.23;;;8.90;99.90;;;;;;5036199;28;20445;-67
2023/05/19 00:13:08;;;;;;;8.23;2.70;;;8.90;99.90;;;;;;5042092;28;20403;-67
2023/05/19 00:15:34;;;;;;;4.03;2.33;;;8.90;99.90;;;;;;5048820;28;20875;-68
2023/05/19 00:17:59;;;;;;;7.80;2.90;;;8.90;99.90;;;;;;5041925;28;20589;-67
2023/05/19 00:20:25;;;;;;;4.33;2.00;;;8.80;99.90;;;;;;5049793;28;20779;-67
2023/05/19 00:22:51;;;;;;;4.73;1.80;;;8.80;99.90;;;;;;5040894;28;20175;-68
2023/05/19 00:25:16;;;;;;;5.20;2.23;;;8.80;99.90;;;;;;5037942;28;20239;-68
2023/05/19 00:27:42;;;;;;;5.47;1.77;;;8.70;99.90;;;;;;5044676;28;20281;-68
2023/05/19 00:30:08;;;;;;;6.33;2.03;;;8.70;99.90;;;;;;5045308;28;20199;-66
2023/05/19 00:32:34;;;;;;;2.10;1.93;;;8.60;99.90;;;;;;5036776;28;20634;-66
2023/05/19 00:34:59;;;;;;;7.97;2.27;;;8.60;99.90;;;;;;5044400;28;20582;-66
2023/05/19 00:37:25;;;;;;;2.77;1.80;;;8.60;99.90;;;;;;5043185;28;20203;-66
2023/05/19 00:39:51;;;;;;;3.03;1.97;;;8.60;99.90;;;;;;5040118;28;20222;-67
2023/05/19 00:42:16;;;;;;;3.57;3.10;;;8.50;99.90;;;;;;5048339;23;20484;-69
2023/05/19 00:44:42;;;;;;;2.60;2.10;;;8.50;99.90;;;;;;5004196;28;20176;-69
2023/05/19 00:47:08;;;;;;;3.07;2.40;;;8.50;99.90;;;;;;5006004;28;20668;-69
2023/05/19 00:49:34;;;;;;;2.47;1.80;;;8.50;99.90;;;;;;5002996;28;20188;-68
2023/05/19 00:52:00;;;;;;;3.50;2.00;;;8.50;99.90;;;;;;4996367;28;20200;-70
2023/05/19 00:54:27;;;;;;;4.10;2.30;;;8.40;99.90;;;;;;5003999;28;20822;-69
2023/05/19 00:56:54;;;;;;;4.00;2.30;;;8.40;99.90;;;;;;4999841;28;20439;-70
2023/05/19 00:59:19;;;;;;;5.30;2.00;;;8.40;99.90;;;;;;4998813;28;20863;-69
2023/05/19 01:01:47;;;;;;;12.47;3.70;;;8.40;99.90;;;;;;5001551;28;20515;-69
2023/05/19 01:04:16;;;;;;;2.80;2.10;;;8.40;99.90;;;;;;4999858;28;20184;-69
2023/05/19 01:06:42;;;;;;;4.27;3.13;;;8.50;99.90;;;;;;4989889;28;20405;-69
2023/05/19 01:09:08;;;;;;;5.60;2.17;;;8.40;99.90;;;;;;5001780;28;20420;-69
2023/05/19 01:11:33;;;;;;;2.60;2.40;;;8.40;99.90;;;;;;5004314;28;20514;-69
2023/05/19 01:13:59;;;;;;;4.63;2.70;;;8.30;99.90;;;;;;5005151;28;20247;-71
2023/05/19 01:16:37;;;;;;;3.07;1.73;;;8.30;99.90;;;;;;5003215;28;20177;-69
2023/05/19 01:19:46;;;;;;;3.97;1.80;;;8.30;99.90;;;;;;4998781;28;20176;-69
2023/05/19 01:22:26;;;;;;;3.13;1.70;;;8.20;99.90;;;;;;4996789;28;20436;-70
2023/05/19 01:25:11;;;;;;;8.50;2.00;;;8.20;99.90;;;;;;4988639;28;20945;-71
2023/05/19 01:27:58;;;;;;;3.50;2.20;;;8.10;99.90;;;;;;5004290;28;20456;-68
2023/05/19 01:30:49;;;;;;;5.20;2.33;;;8.10;99.90;;;;;;5007367;28;20419;-70
2023/05/19 01:33:17;;;;;;;3.20;2.00;;;8.10;99.90;;;;;;4997647;28;20528;-70
2023/05/19 01:35:44;;;;;;;6.20;1.90;;;8.10;99.90;;;;;;5007415;28;20759;-69
2023/05/19 01:38:11;;;;;;;3.97;2.47;;;8.00;99.90;;;;;;5000467;28;20416;-70
2023/05/19 01:40:39;;;;;;;6.57;2.30;;;8.00;99.90;;;;;;5009073;28;21029;-69
2023/05/19 01:43:06;;;;;;;3.87;1.97;;;7.90;99.90;;;;;;4999201;28;20494;-68
2023/05/19 01:45:33;;;;;;;2.80;2.10;;;7.90;99.90;;;;;;5003555;28;20424;-69
2023/05/19 01:48:01;;;;;;;5.17;2.53;;;7.90;99.90;;;;;;5004715;28;20448;-69
2023/05/19 01:50:27;;;;;;;4.63;2.00;;;7.90;99.90;;;;;;5002721;28;20424;-69
2023/05/19 01:52:52;;;;;;;5.07;2.20;;;7.90;99.90;;;;;;5004423;28;20806;-68
2023/05/19 01:55:19;;;;;;;5.10;1.87;;;7.90;99.90;;;;;;5003716;28;20834;-69
2023/05/19 01:58:14;;;;;;;3.10;1.77;;;7.90;99.90;;;;;;5003546;28;20562;-69
2023/05/19 02:00:58;;;;;;;3.67;2.20;;;7.90;99.90;;;;;;4998503;28;20802;-69
2023/05/19 02:03:47;;;;;;;4.13;2.67;;;7.80;99.90;;;;;;5006861;28;20526;-69
2023/05/19 02:06:18;;;;;;;3.97;1.87;;;7.80;99.90;;;;;;4997513;28;20459;-69
2023/05/19 02:09:01;;;;;;;8.23;2.07;;;7.80;99.90;;;;;;4994976;28;20443;-68
2023/05/19 02:11:56;;;;;;;7.83;2.37;;;7.80;99.90;;;;;;5000846;28;20773;-68
2023/05/19 02:14:29;;;;;;;6.10;2.67;;;7.80;99.90;;;;;;4978450;28;20436;-69
2023/05/19 02:16:56;;;;;;;4.70;2.90;;;7.80;99.90;;;;;;4994173;28;20793;-69
2023/05/19 02:19:35;;;;;;;2.37;1.80;;;7.70;99.90;;;;;;4995950;28;20424;-70
2023/05/19 02:22:01;;;;;;;5.27;2.30;;;7.70;99.90;;;;;;5007758;28;20443;-69
2023/05/19 02:24:27;;;;;;;3.13;2.17;;;7.70;99.90;;;;;;4984552;28;20419;-68
2023/05/19 02:26:53;;;;;;;15.63;3.30;;;7.70;99.90;;;;;;5002078;28;20168;-68
2023/05/19 02:29:20;;;;;;;4.90;2.07;;;7.70;99.90;;;;;;5003801;28;20502;-69
2023/05/19 02:31:46;;;;;;;9.50;2.90;;;7.70;99.90;;;;;;5000025;28;20203;-68
2023/05/19 02:34:12;;;;;;;5.27;2.13;;;7.60;99.90;;;;;;5006618;28;20423;-70
2023/05/19 02:36:45;;;;;;;6.00;2.43;;;7.60;99.90;;;;;;4994461;28;20423;-70
2023/05/19 02:39:11;;;;;;;2.73;2.03;;;7.70;99.90;;;;;;5002744;28;20415;-69
2023/05/19 02:41:39;;;;;;;3.63;2.13;;;7.70;99.90;;;;;;5003719;28;20512;-69
2023/05/19 02:44:05;;;;;;;8.87;1.87;;;7.70;99.90;;;;;;4999313;28;20188;-69
2023/05/19 02:46:31;;;;;;;4.67;2.00;;;7.70;99.90;;;;;;5003025;28;21938;-69
2023/05/19 02:48:57;;;;;;;5.63;2.10;;;7.70;99.90;;;;;;4986153;28;20180;-69
2023/05/19 02:51:22;;;;;;;6.83;2.40;;;7.80;99.90;;;;;;4994245;28;20435;-70
2023/05/19 02:53:48;;;;;;;4.97;2.17;;;7.80;99.90;;;;;;4994469;28;20188;-70
2023/05/19 02:56:14;;;;;;;3.20;2.00;;;7.80;99.90;;;;;;4992389;28;20177;-69
2023/05/19 02:58:41;;;;;;;2.30;1.77;;;7.80;99.90;;;;;;4996536;28;20436;-69
2023/05/19 03:01:08;;;;;;;2.13;1.70;;;7.80;99.90;;;;;;5002011;28;20458;-68
2023/05/19 03:03:33;;;;;;;4.03;2.20;;;7.80;99.90;;;;;;4998658;28;20455;-69
2023/05/19 03:06:02;;;;;;;3.47;1.80;;;7.80;99.90;;;;;;4999593;28;20412;-69
2023/05/19 03:08:28;;;;;;;5.20;2.03;;;7.90;99.90;;;;;;4989131;28;20186;-68
2023/05/19 03:10:53;;;;;;;2.20;1.93;;;7.90;99.90;;;;;;4992156;28;20510;-69
2023/05/19 03:13:19;;;;;;;4.20;2.33;;;7.90;99.90;;;;;;5008984;28;20196;-70
2023/05/19 03:15:46;;;;;;;3.97;2.40;;;7.90;99.90;;;;;;4995603;28;20185;-69
2023/05/19 03:18:12;;;;;;;3.70;2.10;;;7.90;99.90;;;;;;4999623;28;20177;-70
2023/05/19 03:20:38;;;;;;;2.07;1.87;;;7.90;99.90;;;;;;5006412;28;20456;-69
2023/05/19 03:23:04;;;;;;;5.70;2.97;;;7.90;99.90;;;;;;4990860;28;20589;-69
2023/05/19 03:25:29;;;;;;;4.30;2.53;;;7.90;99.90;;;;;;5001439;28;20416;-69
2023/05/19 03:27:55;;;;;;;4.60;2.33;;;7.90;99.90;;;;;;5004625;28;20616;-69
2023/05/19 03:30:24;;;;;;;2.80;2.20;;;7.90;99.90;;;;;;5006929;28;20184;-69
2023/05/19 03:32:50;;;;;;;5.30;2.67;;;7.90;99.90;;;;;;4982902;28;20451;-70
2023/05/19 03:35:16;;;;;;;2.17;1.50;;;7.90;99.90;;;;;;4990988;28;20413;-71
2023/05/19 03:37:42;;;;;;;4.60;2.17;;;7.90;99.90;;;;;;5000105;28;20416;-69
2023/05/19 03:40:08;;;;;;;5.23;1.97;;;7.90;99.90;;;;;;4995936;28;20210;-68
2023/05/19 03:42:33;;;;;;;4.60;2.00;;;7.90;99.90;;;;;;5005855;28;20221;-69
2023/05/19 03:44:59;;;;;;;2.53;1.97;;;8.00;99.90;;;;;;4999525;28;20420;-69
2023/05/19 03:47:25;;;;;;;2.60;2.00;;;8.00;99.90;;;;;;5007337;28;20187;-69
2023/05/19 03:49:50;;;;;;;4.00;1.90;;;8.00;99.90;;;;;;4999585;28;20215;-69
2023/05/19 03:52:16;;;;;;;3.20;2.10;;;8.00;99.90;;;;;;4999765;28;20185;-69
2023/05/19 03:54:42;;;;;;;7.07;2.40;;;8.10;99.90;;;;;;5002854;28;20185;-69
2023/05/19 03:57:09;;;;;;;1.67;1.57;;;8.20;99.90;;;;;;5002154;28;20207;-70
2023/05/19 03:59:36;;;;;;;8.17;2.67;;;8.20;99.90;;;;;;5005932;28;20251;-71
2023/05/19 04:02:02;;;;;;;9.30;2.43;;;8.20;99.90;;;;;;5006303;28;20473;-70
2023/05/19 04:04:27;;;;;;;2.67;1.90;;;8.30;99.90;;;;;;5004963;28;20412;-70
2023/05/19 04:06:53;;;;;;;2.50;2.03;;;8.40;99.90;;;;;;5006741;28;20780;-70
2023/05/19 04:09:19;;;;;;;4.13;2.10;;;8.40;99.90;;;;;;5005051;28;20180;-70
2023/05/19 04:11:44;;;;;;;6.17;2.60;;;8.50;99.90;;;;;;5006750;28;20658;-68
2023/05/19 04:14:11;;;;;;;6.50;2.70;;;8.50;99.90;;;;;;5006819;28;20181;-70
2023/05/19 04:16:36;;;;;;;4.00;2.20;;;8.70;99.90;;;;;;5006309;28;20188;-68
2023/05/19 04:19:02;;;;;;;3.67;1.80;;;8.80;99.90;;;;;;5004480;28;20937;-68
2023/05/19 04:21:28;;;;;;;2.50;2.30;;;9.00;99.90;;;;;;5004754;28;20252;-69
2023/05/19 04:23:53;;;;;;;4.50;2.50;;;9.10;99.90;;;;;;5006293;28;20302;-69
2023/05/19 04:26:20;;;;;;;2.77;1.90;;;9.10;99.90;;;;;;5004845;28;20177;-69
2023/05/19 04:28:47;;;;;;;5.13;2.00;;;9.20;99.90;;;;;;5006245;28;20184;-69
2023/05/19 04:31:13;;;;;;;3.60;1.97;;;9.40;99.90;;;;;;5006752;28;20450;-68
2023/05/19 04:33:39;;;;;;;2.83;1.70;;;9.50;99.90;;;;;;4992765;28;20820;-69
2023/05/19 04:36:09;;;;;;;3.60;2.33;;;9.60;99.90;;;;;;5005183;28;20422;-69
2023/05/19 04:38:35;;;;;;;6.73;2.30;;;9.60;99.90;;;;;;5005433;28;20415;-69
2023/05/19 04:41:11;;;;;;;3.13;2.20;;;9.60;99.90;;;;;;5005791;28;20598;-70
2023/05/19 04:43:43;;;;;;;3.60;2.50;;;9.80;99.90;;;;;;5005073;28;20885;-69
2023/05/19 04:46:12;;;;;;;5.10;3.20;;;9.90;99.90;;;;;;5005957;28;20510;-69
2023/05/19 04:48:38;;;;;;;3.17;2.30;;;10.00;99.90;;;;;;5004373;28;20849;-69
2023/05/19 04:51:04;;;;;;;2.93;2.10;;;10.10;99.90;;;;;;5005648;28;20416;-69
2023/05/19 04:53:30;;;;;;;5.90;2.27;;;10.20;99.90;;;;;;5003231;28;20466;-69
2023/05/19 04:55:57;;;;;;;5.20;2.00;;;10.40;99.90;;;;;;5007434;28;20897;-70
2023/05/19 04:58:26;;;;;;;4.70;2.00;;;10.50;99.90;;;;;;5004256;28;20177;-69
2023/05/19 05:00:54;;;;;;;3.00;2.40;;;10.70;99.90;;;;;;5002083;28;20463;-69
2023/05/19 05:03:21;;;;;;;3.00;2.17;;;10.70;99.90;;;;;;5003791;28;20460;-66
2023/05/19 05:05:47;;;;;;;2.00;1.80;;;11.20;99.90;;;;;;5004959;28;20514;-69
2023/05/19 05:08:15;;;;;;;4.73;2.30;;;11.40;99.90;;;;;;5008051;28;20502;-69
2023/05/19 05:10:40;;;;;;;4.97;2.63;;;11.50;99.90;;;;;;4997865;28;20423;-66
2023/05/19 05:13:07;;;;;;;2.80;2.27;;;12.10;99.90;;;;;;5008623;28;20442;-69
2023/05/19 05:15:34;;;;;;;2.47;2.13;;;12.50;99.90;;;;;;5002733;28;20777;-69
2023/05/19 05:18:00;;;;;;;3.93;2.10;;;12.50;99.90;;;;;;4996757;28;20419;-70
2023/05/19 05:20:26;;;;;;;3.17;1.97;;;13.00;99.90;;;;;;4994610;28;20492;-69
2023/05/19 05:22:52;;;;;;;3.40;2.20;;;12.90;99.90;;;;;;5003380;28;20433;-69
2023/05/19 05:25:18;;;;;;;6.00;2.00;;;13.10;99.90;;;;;;5008631;28;20783;-70
2023/05/19 05:27:44;;;;;;;2.03;1.80;;;13.40;99.90;;;;;;4992446;28;20528;-70
2023/05/19 05:30:10;;;;;;;2.47;2.20;;;13.50;99.90;;;;;;5008968;28;20476;-70
2023/05/19 05:32:36;;;;;;;4.73;2.17;;;13.20;99.90;;;;;;5001833;28;20243;-69
2023/05/19 05:35:02;;;;;;;3.50;2.30;;;13.20;99.90;;;;;;5001487;28;20421;-70
2023/05/19 05:37:27;;;;;;;3.13;2.10;;;13.00;99.90;;;;;;5005993;28;20587;-70
2023/05/19 05:39:53;;;;;;;4.37;2.60;;;12.90;99.90;;;;;;5001267;28;20185;-69
2023/05/19 05:42:19;;;;;;;3.00;1.77;;;13.00;99.90;;;;;;5008301;28;20215;-70
2023/05/19 05:44:44;;;;;;;5.33;2.77;;;12.90;99.90;;;;;;5000214;28;20267;-70
2023/05/19 05:47:11;;;;;;;2.47;1.67;;;12.90;99.90;;;;;;5008545;28;20422;-71
2023/05/19 05:49:37;;;;;;;3.90;2.37;;;13.00;99.90;;;;;;5001239;28;20648;-69
2023/05/19 05:52:04;;;;;;;4.30;2.70;;;13.00;99.90;;;;;;5000823;28;20447;-68
2023/05/19 05:54:30;;;;;;;2.63;2.20;;;13.40;99.90;;;;;;5002092;28;20424;-69
2023/05/19 05:56:55;;;;;;;3.20;2.53;;;13.60;99.90;;;;;;5004910;28;20431;-71
2023/05/19 05:59:21;;;;;;;2.90;2.20;;;13.90;99.90;;;;;;5002158;28;20428;-70
2023/05/19 06:01:47;;;;;;;3.13;2.53;;;14.30;99.90;;;;;;4996429;28;20578;-70
2023/05/19 06:04:12;;;;;;;2.83;2.30;;;14.60;99.90;;;;;;5002347;28;20183;-69
2023/05/19 06:06:38;;;;;;;3.60;2.03;;;15.00;99.90;;;;;;5004281;28;20223;-70
2023/05/19 06:09:04;;;;;;;3.20;2.33;;;15.30;99.90;;;;;;5004368;28;20222;-70
2023/05/19 06:11:30;;;;;;;2.93;2.30;;;15.50;99.90;;;;;;5004985;28;20173;-69
2023/05/19 06:13:55;;;;;;;3.33;2.13;;;15.60;99.90;;;;;;5003553;28;20427;-71
2023/05/19 06:16:21;;;;;;;3.40;2.53;;;15.40;99.90;;;;;;4998110;28;20642;-70
2023/05/19 06:18:47;;;;;;;3.67;2.30;;;15.70;99.90;;;;;;5006238;28;20202;-70
2023/05/19 06:21:12;;;;;;;5.47;2.83;;;15.80;99.90;;;;;;5005414;28;20231;-69
2023/05/19 06:23:42;;;;;;;2.73;2.17;;;16.40;99.90;;;;;;5009074;28;20283;-69
2023/05/19 06:26:07;;;;;;;4.33;2.10;;;17.30;99.90;;;;;;5007738;28;20300;-70
2023/05/19 06:28:33;;;;;;;3.50;2.03;;;17.30;99.90;;;;;;5004226;28;20927;-70
2023/05/19 06:30:59;;;;;;;6.73;2.70;;;17.30;99.90;;;;;;5005786;28;20193;-69
2023/05/19 06:33:25;;;;;;;2.20;2.00;;;17.30;99.90;;;;;;5001616;28;20342;-69
2023/05/19 06:35:50;;;;;;;3.17;2.23;;;17.50;99.90;;;;;;5003955;28;20351;-69
2023/05/19 06:38:16;;;;;;;4.03;2.10;;;18.00;99.90;;;;;;4995827;28;20476;-70
2023/05/19 06:40:42;;;;;;;4.70;2.50;;;18.00;99.90;;;;;;5004424;28;20236;-72
2023/05/19 06:43:08;;;;;;;3.03;2.20;;;18.30;99.90;;;;;;5003584;28;20227;-70
2023/05/19 06:45:34;;;;;;;4.80;2.60;;;18.50;99.90;;;;;;4996408;28;20188;-70
2023/05/19 06:47:59;;;;;;;5.27;2.90;;;18.70;99.90;;;;;;5005470;28;20263;-69
2023/05/19 06:50:25;;;;;;;7.33;3.37;;;17.60;99.90;;;;;;5001993;28;20170;-70
2023/05/19 06:52:51;;;;;;;5.93;2.60;;;17.90;99.90;;;;;;5004185;28;20220;-69
2023/05/19 06:55:17;;;;;;;4.53;2.30;;;18.50;99.90;;;;;;5004818;28;20433;-72
2023/05/19 06:57:43;;;;;;;4.97;2.70;;;19.10;99.90;;;;;;5005134;28;20480;-70
2023/05/19 07:00:11;;;;;;;3.13;2.57;;;19.20;98.80;;;;;;5003226;28;20202;-71
2023/05/19 07:02:37;;;;;;;3.93;2.40;;;19.60;98.90;;;;;;4999010;28;20192;-71
2023/05/19 07:05:02;;;;;;;2.57;2.10;;;19.40;99.10;;;;;;5005638;28;20480;-69
2023/05/19 07:07:28;;;;;;;2.60;2.20;;;19.70;98.10;;;;;;5003773;28;20774;-70
2023/05/19 07:09:53;;;;;;;6.20;2.70;;;19.70;98.40;;;;;;5005106;28;20175;-71
2023/05/19 07:12:19;;;;;;;3.63;2.20;;;19.30;99.20;;;;;;5004610;28;20192;-70
2023/05/19 07:14:45;;;;;;;2.73;1.90;;;19.90;98.10;;;;;;5005019;28;20173;-70
2023/05/19 07:17:11;;;;;;;2.90;2.07;;;20.00;97.40;;;;;;4997860;28;20175;-70
2023/05/19 07:19:37;;;;;;;5.07;2.37;;;19.50;98.70;;;;;;5001646;28;20316;-69
2023/05/19 07:22:02;;;;;;;4.30;3.13;;;18.70;99.90;;;;;;5003575;28;20935;-70
2023/05/19 07:24:29;;;;;;;4.20;2.90;;;19.00;99.30;;;;;;5002263;28;20172;-70
2023/05/19 07:26:55;;;;;;;5.13;2.40;;;19.00;99.40;;;;;;5003357;28;20184;-71
2023/05/19 07:29:20;;;;;;;5.03;2.10;;;19.20;99.80;;;;;;5002856;28;20413;-71
2023/05/19 07:31:46;;;;;;;3.20;2.50;;;19.40;99.60;;;;;;5005677;28;20194;-69
2023/05/19 07:34:11;;;;;;;3.10;1.60;;;19.40;99.80;;;;;;5005774;28;20178;-70
2023/05/19 07:36:37;;;;;;;3.53;2.00;;;20.10;98.50;;;;;;5004781;28;20185;-70
2023/05/19 07:39:03;;;;;;;4.53;2.03;;;20.20;97.90;;;;;;4996659;28;20660;-71
2023/05/19 07:41:28;;;;;;;3.33;2.50;;;20.40;98.20;;;;;;4997314;28;20219;-70
2023/05/19 07:43:54;;;;;;;6.60;2.20;;;19.50;99.30;;;;;;5007680;28;20214;-69
2023/05/19 07:46:20;;;;;;;2.67;2.13;;;20.20;97.90;;;;;;5005756;28;20290;-71
2023/05/19 07:48:46;;;;;;;2.60;2.40;;;21.70;95.70;;;;;;5007354;28;20179;-70
2023/05/19 07:51:12;;;;;;;4.07;2.13;;;20.40;96.80;;;;;;5006703;28;20995;-71
2023/05/19 07:53:38;;;;;;;2.50;1.80;;;20.90;96.80;;;;;;5003309;28;20661;-70
2023/05/19 07:56:04;;;;;;;7.50;2.30;;;20.80;95.20;;;;;;5041095;22;20272;-69
2023/05/19 07:58:29;;;;;;;6.60;2.60;;;21.60;95.20;;;;;;5030563;28;20667;-66
2023/05/19 08:00:59;;;;;;;6.13;2.10;;;21.80;93.60;;;;;;5028004;28;20200;-66
2023/05/19 08:03:25;;;;;;;3.47;2.10;;;21.90;93.80;;;;;;5020268;28;20298;-67
2023/05/19 08:05:51;;;;;;;3.43;2.20;;;22.10;93.10;;;;;;5010721;28;20453;-67
2023/05/19 08:08:18;;;;;;;3.60;2.50;;;22.10;92.20;;;;;;5027212;28;20418;-65
2023/05/19 08:10:44;;;;;;;2.47;2.23;;;22.30;91.50;;;;;;5019326;28;20190;-67
2023/05/19 08:13:10;;;;;;;2.60;2.03;;;22.20;91.20;;;;;;5019541;28;20432;-66
2023/05/19 08:15:36;;;;;;;5.63;2.30;;;22.00;90.90;;;;;;5025325;28;20448;-67
2023/05/19 08:18:02;;;;;;;3.10;2.80;;;21.90;91.10;;;;;;5027038;28;20607;-67
2023/05/19 08:20:28;;;;;;;3.77;2.40;;;22.00;90.70;;;;;;5026216;28;20467;-67
2023/05/19 08:22:53;;;;;;;3.27;2.10;;;22.40;90.60;;;;;;5018270;28;20252;-68
2023/05/19 08:25:19;;;;;;;3.90;2.97;;;22.20;90.40;;;;;;5007728;28;20199;-68
2023/05/19 08:27:45;;;;;;;2.20;2.00;;;22.40;90.40;;;;;;5033685;28;20183;-68
2023/05/19 08:30:11;;;;;;;4.13;2.10;;;22.50;89.70;;;;;;5026427;28;20256;-67
2023/05/19 08:32:36;;;;;;;3.80;2.30;;;22.70;88.70;;;;;;5017364;28;20183;-67
2023/05/19 08:35:03;;;;;;;7.07;2.30;;;22.70;88.90;;;;;;5023567;28;20414;-67
2023/05/19 08:37:28;;;;;;;3.13;1.93;;;22.60;88.60;;;;;;5014655;28;20165;-67
2023/05/19 08:39:54;;;;;;;4.83;2.40;;;22.70;86.80;;;;;;5011213;28;20433;-67
2023/05/19 08:42:19;;;;;;;5.07;2.50;;;23.30;86.50;;;;;;5009615;28;20161;-67
2023/05/19 08:44:45;;;;;;;3.20;2.47;;;22.90;85.50;;;;;;5024608;28;20199;-67
2023/05/19 08:47:12;;;;;;;2.17;1.97;;;22.30;87.90;;;;;;5023553;28;20213;-67
2023/05/19 08:49:48;;;;;;;2.50;2.30;;;22.90;86.60;;;;;;5014110;28;20531;-68
2023/05/19 08:52:14;;;;;;;2.50;2.23;;;22.70;84.60;;;;;;5028656;28;20464;-67
2023/05/19 08:54:51;;;;;;;2.00;1.80;;;22.10;83.50;;;;;;5026221;28;20780;-67
2023/05/19 08:57:17;;;;;;;3.03;2.27;;;21.30;84.30;;;;;;5005195;28;20198;-70
2023/05/19 08:59:44;;;;;;;5.57;1.77;;;21.20;85.30;;;;;;5019853;28;20464;-67
2023/05/19 09:02:11;;;;;;;2.20;1.87;;;20.70;86.10;;;;;;5030093;28;20416;-68
2023/05/19 09:04:38;;;;;;;2.27;1.70;;;20.60;86.50;;;;;;5028359;28;20923;-68
2023/05/19 09:07:05;;;;;;;2.57;2.10;;;20.50;87.40;;;;;;5019809;28;21073;-68
2023/05/19 09:09:31;;;;;;;2.20;1.60;;;20.30;87.60;;;;;;5015702;28;20733;-69
2023/05/19 09:11:57;;;;;;;1.77;1.50;;;20.30;86.70;;;;;;4989366;28;20452;-68
2023/05/19 09:14:22;;;;;;;4.17;2.10;;;20.00;87.30;;;;;;5021443;28;20167;-68
2023/05/19 09:16:51;;;;;;;4.40;2.47;;;20.70;87.10;;;;;;5023293;28;20439;-68
2023/05/19 09:19:17;;;;;;;1.97;1.77;;;21.10;86.00;;;;;;5011412;28;20184;-68
2023/05/19 09:21:44;;;;;;;1.40;1.30;;;21.50;83.60;;;;;;5024191;28;20878;-68
2023/05/19 09:24:10;;;;;;;2.83;1.60;;;21.70;82.10;;;;;;5014077;28;20194;-69
2023/05/19 09:26:40;;;;;;;1.90;1.40;;;21.20;82.00;;;;;;5016201;28;20426;-68
2023/05/19 09:29:16;;;;;;;2.77;1.40;;;21.00;83.00;;;;;;5013010;28;20186;-69
2023/05/19 09:31:52;;;;;;;2.90;1.70;;;21.50;83.10;;;;;;5011549;28;20868;-70
2023/05/19 09:34:20;;;;;;;2.20;1.70;;;21.40;81.60;;;;;;5019545;28;20434;-68
2023/05/19 09:36:50;;;;;;;1.50;1.40;;;20.70;82.30;;;;;;5015365;28;20519;-68
2023/05/19 09:39:17;;;;;;;2.33;1.73;;;20.00;82.40;;;;;;5011155;28;20474;-67
2023/05/19 09:41:43;;;;;;;1.27;1.17;;;19.50;85.20;;;;;;5014623;28;20422;-68
2023/05/19 09:44:21;;;;;;;2.33;1.43;;;19.40;83.90;;;;;;4999159;28;20511;-68
2023/05/19 09:46:50;;;;;;;2.13;1.13;;;19.10;85.90;;;;;;5017107;28;20966;-69
2023/05/19 09:49:30;;;;;;;1.43;1.33;;;19.10;84.60;;;;;;5018702;28;20506;-67
2023/05/19 09:52:02;;;;;;;1.70;1.23;;;19.00;85.20;;;;;;5021252;28;20568;-67
2023/05/19 09:54:30;;;;;;;1.53;1.27;;;18.70;87.30;;;;;;5022031;28;20410;-68
2023/05/19 09:57:04;;;;;;;2.60;1.70;;;18.40;87.40;;;;;;5027631;28;20457;-69
2023/05/19 09:59:30;;;;;;;1.70;1.60;;;18.20;88.10;;;;;;5013742;28;20810;-68
2023/05/19 10:01:57;;;;;;;1.40;1.30;;;18.70;88.20;;;;;;5024436;28;20409;-68
2023/05/19 10:04:28;;;;;;;1.97;1.80;;;19.10;85.50;;;;;;5019790;28;20951;-68
2023/05/19 10:07:04;;;;;;;5.90;1.30;;;19.50;86.20;;;;;;5023309;28;20433;-68
2023/05/19 10:09:29;;;;;;;1.70;1.10;;;19.60;85.40;;;;;;5023028;28;20421;-67
2023/05/19 10:11:57;;;;;;;1.90;1.60;;;19.40;86.00;;;;;;5023601;28;20550;-68
2023/05/19 10:14:27;;;;;;;1.57;1.27;;;19.60;85.80;;;;;;5020034;28;20231;-67
2023/05/19 10:16:55;;;;;;;3.60;1.53;;;19.40;86.70;;;;;;5027721;28;20840;-67
2023/05/19 10:19:25;;;;;;;1.50;1.40;;;19.10;87.10;;;;;;5016157;28;20802;-68
2023/05/19 10:21:51;;;;;;;1.30;1.20;;;19.10;87.60;;;;;;5016191;28;20433;-67
2023/05/19 10:24:17;;;;;;;2.50;1.67;;;18.90;86.70;;;;;;5015088;28;21122;-68
2023/05/19 10:27:00;;;;;;;2.87;1.47;;;18.80;87.20;;;;;;5017895;28;20493;-67
2023/05/19 10:29:28;;;;;;;1.30;1.00;;;19.00;86.20;;;;;;5003798;28;21005;-70
2023/05/19 10:31:57;;;;;;;1.43;1.30;;;18.70;86.30;;;;;;5022994;28;20548;-71
2023/05/19 10:34:50;;;;;;;2.87;1.50;;;18.90;86.60;;;;;;5013406;28;20438;-67
2023/05/19 10:37:20;;;;;;;1.43;1.10;;;19.10;86.80;;;;;;5012531;28;20431;-67
2023/05/19 10:39:47;;;;;;;2.27;1.43;;;19.10;85.60;;;;;;5016769;28;20415;-68
2023/05/19 10:42:24;;;;;;;1.83;1.17;;;19.00;83.60;;;;;;5018258;28;20485;-70
2023/05/19 10:45:04;;;;;;;2.30;1.67;;;18.80;84.60;;;;;;5012236;28;20417;-68
2023/05/19 10:47:31;;;;;;;2.03;1.33;;;18.80;84.50;;;;;;5021064;28;20439;-67
2023/05/19 10:49:59;;;;;;;1.67;1.00;;;18.80;84.70;;;;;;5021864;28;20482;-67
2023/05/19 10:52:25;;;;;;;4.33;1.50;;;18.80;85.20;;;;;;5018587;28;20411;-68
2023/05/19 10:54:53;;;;;;;1.70;1.50;;;18.70;86.30;;;;;;5022946;28;20405;-67
2023/05/19 10:57:30;;;;;;;1.63;1.50;;;18.80;85.50;;;;;;5019905;28;20425;-67
2023/05/19 10:59:56;;;;;;;2.97;1.50;;;18.90;85.20;;;;;;5023299;28;20726;-67
2023/05/19 11:02:42;;;;;;;1.83;1.20;;;18.70;85.70;;;;;;5020072;28;20403;-66
2023/05/19 11:05:11;;;;;;;1.77;1.10;;;18.50;85.70;;;;;;5021835;28;20407;-67
2023/05/19 11:07:41;;;;;;;2.43;1.20;;;18.50;85.90;;;;;;5037405;28;20453;-67
2023/05/19 11:10:07;;;;;;;1.67;1.50;;;18.50;86.00;;;;;;5020965;28;20411;-67
2023/05/19 11:12:41;;;;;;;1.80;1.53;;;18.90;86.20;;;;;;5036746;28;20415;-67
2023/05/19 11:15:12;;;;;;;2.07;1.70;;;18.80;86.50;;;;;;5021945;28;20409;-66
2023/05/19 11:17:41;;;;;;;1.60;1.37;;;19.00;86.40;;;;;;5022643;28;20541;-67
2023/05/19 11:20:10;;;;;;;3.00;1.50;;;19.20;85.20;;;;;;5009700;28;20835;-67
2023/05/19 11:22:35;;;;;;;3.53;1.30;;;19.30;85.40;;;;;;5022091;28;20450;-67
2023/05/19 11:25:02;;;;;;;1.40;1.30;;;19.10;85.60;;;;;;5018653;28;20459;-67
2023/05/19 11:27:36;;;;;;;2.30;1.30;;;18.80;85.40;;;;;;5020402;28;20412;-68
2023/05/19 11:30:06;;;;;;;1.97;1.80;;;19.00;85.90;;;;;;5021093;28;20410;-67
2023/05/19 11:32:33;;;;;;;2.30;1.23;;;19.30;85.10;;;;;;5019966;28;20412;-68
2023/05/19 11:34:59;;;;;;;1.43;1.30;;;19.50;84.60;;;;;;5022506;28;20411;-67
2023/05/19 11:37:27;;;;;;;2.27;1.60;;;19.40;84.20;;;;;;5010109;28;20903;-67
2023/05/19 11:39:53;;;;;;;2.07;1.43;;;19.60;83.80;;;;;;5021589;28;20484;-67
2023/05/19 11:42:18;;;;;;;2.10;1.20;;;19.50;82.80;;;;;;5021804;28;20423;-67
2023/05/19 11:44:45;;;;;;;1.10;1.00;;;19.30;83.40;;;;;;5021288;28;20175;-67
2023/05/19 11:47:14;;;;;;;2.40;1.53;;;19.10;84.20;;;;;;5021912;28;20222;-67
2023/05/19 11:49:58;;;;;;;1.40;1.30;;;19.10;84.50;;;;;;5016620;28;20433;-68
2023/05/19 11:52:26;;;;;;;1.30;1.20;;;19.20;85.00;;;;;;5024417;28;20405;-68
2023/05/19 11:54:52;;;;;;;3.10;1.40;;;19.40;84.60;;;;;;5018312;28;20407;-68
2023/05/19 11:57:18;;;;;;;1.33;1.17;;;19.40;82.90;;;;;;5025250;28;20515;-67
2023/05/19 11:59:44;;;;;;;1.67;1.27;;;19.30;81.30;;;;;;5009674;28;20666;-67
2023/05/19 12:02:18;;;;;;;4.20;1.00;;;19.40;82.00;;;;;;5010526;28;20409;-67
2023/05/19 12:04:45;;;;;;;1.60;1.43;;;19.30;81.50;;;;;;5014118;28;20982;-67
2023/05/19 12:07:12;;;;;;;2.10;1.43;;;19.50;82.10;;;;;;5018218;28;20958;-68
2023/05/19 12:09:38;;;;;;;3.63;3.10;;;19.40;81.40;;;;;;5024586;28;20422;-67
2023/05/19 12:12:04;;;;;;;1.63;1.30;;;19.40;80.70;;;;;;5013995;28;20446;-67
2023/05/19 12:14:30;;;;;;;1.87;1.40;;;19.30;80.90;;;;;;5015070;28;20799;-68
2023/05/19 12:16:56;;;;;;;2.20;1.57;;;19.20;80.90;;;;;;5009256;28;20428;-68
2023/05/19 12:19:25;;;;;;;1.40;1.20;;;19.40;81.90;;;;;;5028872;28;20175;-67
2023/05/19 12:21:51;;;;;;;1.93;1.30;;;19.40;81.30;;;;;;5020957;28;20469;-68
2023/05/19 12:24:19;;;;;;;1.40;1.30;;;19.40;80.80;;;;;;5023052;28;20460;-67
2023/05/19 12:26:44;;;;;;;1.50;1.40;;;19.20;80.20;;;;;;5019284;28;20450;-68
2023/05/19 12:29:12;;;;;;;2.60;1.50;;;19.30;81.00;;;;;;5011971;28;20432;-67
2023/05/19 12:31:38;;;;;;;1.70;1.20;;;19.30;80.10;;;;;;5001608;28;20341;-68
2023/05/19 12:34:04;;;;;;;1.60;1.47;;;19.20;80.20;;;;;;5036182;28;20445;-67
2023/05/19 12:36:31;;;;;;;2.97;1.17;;;19.40;79.70;;;;;;5027854;28;20452;-67
2023/05/19 12:38:56;;;;;;;2.40;1.23;;;19.40;80.30;;;;;;5020675;28;20179;-69
2023/05/19 12:41:24;;;;;;;2.63;1.47;;;19.40;79.90;;;;;;5021717;28;20504;-68
2023/05/19 12:43:50;;;;;;;1.70;1.60;;;19.20;81.00;;;;;;5026453;28;20176;-68
2023/05/19 12:46:18;;;;;;;2.23;1.60;;;19.10;80.40;;;;;;5037350;28;20977;-68
2023/05/19 12:48:44;;;;;;;5.20;1.50;;;19.00;81.00;;;;;;5025155;28;20178;-68
2023/05/19 12:51:19;;;;;;;1.97;1.30;;;19.10;81.90;;;;;;5023064;28;20960;-67
2023/05/19 12:53:46;;;;;;;1.80;1.23;;;19.20;82.70;;;;;;5010881;28;20440;-68